Terminal Aerodrome Forecast
Issued by NWS Sioux Falls, SD

Home | Current Version | Previous Version | Text Only | Print | Product List | Glossary On
Versions: 1 2 3 4 5 6 7 8 9 10 11 12
000
FTUS43 KFSD 271720
TAFHON
TAF
KHON 271720Z 2718/2818 32007KT P6SM BKN080
     FM272000 26007KT P6SM SCT120
     FM280800 29007KT P6SM SCT250
     FM281400 31011KT P6SM FEW250=

USA.gov is the U.S. government's official web portal to all federal, state and local government web resources and services.